Time;durP1;ratioP1;P1;durP2;ratioP2;P2;SDS_P1;SDS_P2;PMS_P1;PMS_P2;Temp;Humidity;BMP_temperature;BMP_pressure;BME280_temperature;BME280_humidity;BME280_pressure;Samples;Min_cycle;Max_cycle;Signal;HPM_P1;HPM_P2
2022/01/16 00:04:05;;;;;;;13.77;6.90;;;-1.10;99.90;-2.30;100893;;;;572310;245;24093;-80
2022/01/16 00:04:19;;;;;;;17.90;7.10;;;-1.10;99.90;-2.30;100897;;;;572359;246;24070;-80
2022/01/16 00:06:43;;;;;;;16.83;7.27;;;-1.10;99.90;-2.30;100911;;;;574573;245;24047;-80
2022/01/16 00:09:11;;;;;;;12.87;6.57;;;-1.10;99.90;-2.30;100910;;;;570528;249;24099;-80
2022/01/16 00:11:42;;;;;;;13.07;6.17;;;-1.10;99.90;-2.30;100890;;;;572241;246;24050;-80
2022/01/16 00:14:08;;;;;;;18.60;7.00;;;-1.10;99.90;-2.30;100880;;;;571974;247;24070;-80
2022/01/16 00:16:40;;;;;;;12.93;7.13;;;-1.10;99.90;-2.30;100893;;;;575477;246;24057;-81
2022/01/16 00:19:07;;;;;;;16.33;7.50;;;-1.10;99.90;-2.40;100889;;;;571428;247;24057;-82
2022/01/16 00:21:33;;;;;;;9.50;6.27;;;-1.20;99.90;-2.40;100881;;;;575040;246;24061;-82
2022/01/16 00:24:00;;;;;;;15.37;6.47;;;-1.20;99.90;-2.50;100885;;;;569930;249;24101;-80
2022/01/16 00:26:31;;;;;;;18.33;8.43;;;-1.30;99.90;-2.50;100887;;;;569666;247;24045;-81
2022/01/16 00:28:59;;;;;;;17.30;10.07;;;-1.30;99.90;-2.60;100886;;;;574701;246;24114;-80
2022/01/16 00:31:24;;;;;;;21.97;10.50;;;-1.30;99.90;-2.60;100876;;;;562411;251;24079;-80
2022/01/16 00:33:55;;;;;;;25.17;12.27;;;-1.30;99.90;-2.50;100875;;;;579755;246;24040;-81
2022/01/16 00:36:20;;;;;;;24.90;12.00;;;-1.30;99.90;-2.50;100891;;;;572162;246;24087;-79
2022/01/16 00:38:48;;;;;;;20.13;12.20;;;-1.30;99.90;-2.50;100882;;;;569155;252;24079;-81
2022/01/16 00:41:19;;;;;;;24.03;12.00;;;-1.30;99.90;-2.50;100892;;;;560807;252;24092;-82
2022/01/16 00:43:44;;;;;;;19.80;11.40;;;-1.30;99.90;-2.50;100886;;;;572324;246;24081;-81
2022/01/16 00:46:12;;;;;;;23.60;11.60;;;-1.30;99.90;-2.50;100861;;;;573132;246;24098;-81
2022/01/16 00:48:44;;;;;;;17.00;9.70;;;-1.30;99.90;-2.50;100849;;;;564689;250;24086;-81
2022/01/16 00:51:08;;;;;;;25.80;11.87;;;-1.30;99.90;-2.50;100859;;;;574141;246;24077;-81
2022/01/16 00:53:39;;;;;;;17.87;10.40;;;-1.30;99.90;-2.50;100851;;;;574930;246;24059;-81
2022/01/16 00:56:07;;;;;;;18.37;9.70;;;-1.30;99.90;-2.60;100868;;;;562026;251;24130;-81
2022/01/16 00:58:32;;;;;;;21.03;10.23;;;-1.30;99.90;-2.60;100871;;;;582666;246;24074;-80
2022/01/16 01:01:00;;;;;;;16.17;8.93;;;-1.40;99.90;-2.50;100867;;;;568722;248;24232;-79
2022/01/16 01:03:28;;;;;;;16.63;8.93;;;-1.40;99.90;-2.50;100870;;;;564674;251;24086;-80
2022/01/16 01:05:55;;;;;;;16.87;10.00;;;-1.30;99.90;-2.50;100872;;;;564889;251;24075;-81
2022/01/16 01:08:27;;;;;;;15.33;10.10;;;-1.30;99.90;-2.40;100870;;;;560158;252;25229;-81
2022/01/16 01:10:53;;;;;;;15.17;6.43;;;-1.30;99.90;-2.40;100878;;;;562160;251;24129;-81
2022/01/16 01:16:04;;;;;;;17.45;8.45;;;-1.10;99.90;-2.30;100852;;;;554685;249;35325;-80
2022/01/16 01:18:32;;;;;;;8.57;5.27;;;-1.00;99.90;-2.20;100859;;;;568755;248;25109;-81
2022/01/16 01:21:02;;;;;;;10.47;5.50;;;-1.00;99.90;-2.20;100844;;;;565494;250;24186;-80
2022/01/16 01:23:32;;;;;;;9.43;5.57;;;-1.00;99.90;-2.10;100860;;;;575647;245;24055;-81
2022/01/16 01:25:56;;;;;;;9.63;5.27;;;-0.90;99.90;-2.00;100859;;;;571819;247;24045;-81
2022/01/16 01:28:29;;;;;;;10.83;5.70;;;-0.80;99.90;-1.90;100865;;;;584338;240;24146;-80
2022/01/16 01:30:54;;;;;;;11.00;5.03;;;-0.80;99.90;-1.90;100882;;;;572557;246;24054;-80
2022/01/16 01:33:21;;;;;;;10.70;5.37;;;-0.70;99.90;-1.80;100867;;;;571881;245;24085;-80
2022/01/16 01:35:49;;;;;;;11.23;4.60;;;-0.60;99.90;-1.70;100838;;;;575284;245;24096;-81
2022/01/16 01:38:19;;;;;;;11.00;5.53;;;-0.60;99.90;-1.70;100831;;;;580157;246;24053;-81
2022/01/16 01:40:47;;;;;;;9.50;5.83;;;-0.50;99.90;-1.70;100824;;;;560123;252;24130;-80
2022/01/16 01:51:15;;;;;;;8.83;4.40;;;-0.50;99.90;-1.60;100831;;;;572671;244;24089;-81
2022/01/16 01:53:47;;;;;;;11.57;5.60;;;-0.50;99.90;-1.60;100809;;;;571042;246;24080;-81
2022/01/16 01:56:12;;;;;;;11.13;5.40;;;-0.50;99.90;-1.60;100807;;;;572589;250;24148;-80
2022/01/16 01:58:43;;;;;;;7.20;4.87;;;-0.40;99.90;-1.60;100782;;;;564261;251;24098;-81
2022/01/16 02:01:08;;;;;;;22.33;5.67;;;-0.40;99.90;-1.60;100709;;;;563184;250;24103;-80
2022/01/16 02:06:21;;;;;;;8.97;4.30;;;-0.40;99.90;-1.60;100688;;;;562313;251;24070;-80
2022/01/16 02:08:50;;;;;;;9.93;4.53;;;-0.40;99.90;-1.50;100690;;;;583668;244;24108;-81
2022/01/16 02:11:18;;;;;;;9.70;4.37;;;-0.40;99.90;-1.50;100678;;;;562254;251;24132;-80
2022/01/16 02:14:47;;;;;;;13.07;5.43;;;-0.40;99.90;-1.50;100715;;;;562309;251;24114;-81
2022/01/16 02:32:48;;;;;;;10.93;6.47;;;-0.20;99.90;-1.30;100741;;;;576128;246;24050;-80
2022/01/16 02:35:11;;;;;;;14.23;5.57;;;-0.10;99.90;-1.20;100714;;;;574332;246;24168;-79
2022/01/16 02:37:35;;;;;;;7.47;4.73;;;-0.10;99.90;-1.20;100722;;;;564719;250;24130;-80
2022/01/16 02:40:12;;;;;;;17.97;5.97;;;-0.10;99.90;-1.20;100734;;;;567317;248;24108;-80
2022/01/16 02:42:37;;;;;;;9.97;5.67;;;-0.10;99.90;-1.20;100748;;;;577680;248;24180;-81
2022/01/16 02:45:04;;;;;;;8.77;4.73;;;0.00;99.90;-1.10;100745;;;;569065;248;24114;-81
2022/01/16 02:47:33;;;;;;;21.93;6.20;;;0.00;99.90;-1.10;100745;;;;573143;248;24125;-80
2022/01/16 02:49:58;;;;;;;8.87;5.20;;;0.00;99.90;-1.10;100739;;;;569023;248;24079;-81
2022/01/16 02:52:26;;;;;;;16.47;6.03;;;0.10;99.90;-1.10;100750;;;;569022;248;24160;-80
2022/01/16 02:54:55;;;;;;;17.40;5.37;;;0.10;99.90;-1.00;100748;;;;569203;248;24086;-80
2022/01/16 02:57:22;;;;;;;14.90;5.70;;;0.10;99.90;-1.00;100742;;;;569025;248;24111;-80
2022/01/16 02:59:49;;;;;;;12.17;5.33;;;0.10;99.90;-1.00;100745;;;;569103;248;24146;-80
2022/01/16 03:02:17;;;;;;;17.63;5.80;;;0.20;99.90;-0.90;100745;;;;568727;248;24110;-81
2022/01/16 03:04:48;;;;;;;13.77;5.73;;;0.20;99.90;-0.90;100747;;;;568879;248;24135;-80
2022/01/16 03:07:14;;;;;;;13.40;5.57;;;0.20;99.90;-0.90;100755;;;;568401;248;24112;-81
2022/01/16 03:12:27;;;;;;;24.90;10.65;;;0.20;99.90;-0.80;100712;;;;572332;248;35470;-79
2022/01/16 03:14:55;;;;;;;20.13;9.23;;;0.30;99.90;-0.90;100709;;;;577424;248;24105;-82
2022/01/16 03:17:36;;;;;;;12.93;5.33;;;0.20;99.90;-0.90;100707;;;;568675;248;24092;-79
2022/01/16 03:22:37;;;;;;;23.83;10.10;;;0.30;99.90;-0.90;100693;;;;572395;248;35354;-79
2022/01/16 03:25:09;;;;;;;22.47;8.07;;;0.30;99.90;-0.90;100696;;;;569106;248;25188;-79
2022/01/16 03:27:36;;;;;;;21.53;6.07;;;0.30;99.90;-0.90;100697;;;;568144;248;24100;-79
2022/01/16 03:30:01;;;;;;;16.60;6.17;;;0.20;99.90;-0.90;100702;;;;568487;248;24092;-80
2022/01/16 03:32:29;;;;;;;14.03;5.43;;;0.20;99.90;-0.90;100686;;;;568864;248;24138;-79
2022/01/16 03:34:57;;;;;;;17.23;6.47;;;0.20;99.90;-1.00;100696;;;;568814;248;24108;-78
2022/01/16 03:37:25;;;;;;;16.63;6.60;;;0.20;99.90;-1.00;100682;;;;568948;248;24095;-81
2022/01/16 03:39:53;;;;;;;17.10;6.50;;;0.20;99.90;-1.00;100685;;;;577766;248;24108;-81
2022/01/16 03:42:26;;;;;;;11.30;5.30;;;0.20;99.90;-1.00;100672;;;;569579;246;24097;-82
2022/01/16 03:44:49;;;;;;;10.53;4.77;;;0.20;99.90;-1.00;100660;;;;570772;248;24090;-80
2022/01/16 03:47:18;;;;;;;11.27;5.37;;;0.20;99.90;-1.00;100665;;;;570034;248;24120;-82
2022/01/16 03:49:48;;;;;;;27.77;11.07;;;0.20;99.90;-1.00;100663;;;;573269;248;35392;-81
2022/01/16 03:52:14;;;;;;;17.13;7.20;;;0.20;99.90;-1.00;100669;;;;569048;248;25170;-78
2022/01/16 03:54:42;;;;;;;16.93;6.63;;;0.20;99.90;-0.90;100666;;;;569311;248;24110;-80
2022/01/16 03:57:10;;;;;;;13.97;6.47;;;0.20;99.90;-0.90;100650;;;;569238;248;24106;-79
2022/01/16 03:59:38;;;;;;;13.47;6.13;;;0.20;99.90;-0.90;100646;;;;569157;248;24199;-79
2022/01/16 04:02:10;;;;;;;11.77;5.97;;;0.30;99.90;-0.90;100635;;;;568953;248;24099;-81
2022/01/16 04:04:34;;;;;;;11.63;6.33;;;0.30;99.90;-0.80;100632;;;;568865;248;24107;-80
2022/01/16 04:07:05;;;;;;;14.73;6.27;;;0.30;99.90;-0.80;100630;;;;568805;248;24087;-80
2022/01/16 04:09:33;;;;;;;14.20;6.60;;;0.30;99.90;-0.80;100629;;;;568515;248;24109;-81
2022/01/16 04:11:58;;;;;;;14.13;5.70;;;0.30;99.90;-0.90;100634;;;;565935;248;24108;-80
2022/01/16 04:17:12;;;;;;;9.10;5.60;;;0.30;99.90;-0.80;100627;;;;569043;248;24112;-81
2022/01/16 04:19:40;;;;;;;12.97;4.90;;;0.30;99.90;-0.80;100617;;;;566108;248;24085;-82
2022/01/16 04:22:09;;;;;;;17.13;5.53;;;0.30;99.90;-0.80;100609;;;;568471;248;24135;-79
2022/01/16 04:24:40;;;;;;;10.93;6.07;;;0.30;99.90;-0.80;100613;;;;568601;248;24080;-81
2022/01/16 04:27:05;;;;;;;14.90;6.83;;;0.30;99.90;-0.70;100606;;;;568028;248;24108;-81
2022/01/16 04:29:33;;;;;;;20.17;6.03;;;0.40;99.90;-0.70;100601;;;;568502;248;24091;-81
2022/01/16 04:32:01;;;;;;;14.50;5.53;;;0.40;99.90;-0.70;100614;;;;568444;248;24090;-81
2022/01/16 04:34:29;;;;;;;19.13;6.53;;;0.40;99.90;-0.70;100620;;;;568320;248;24135;-82
2022/01/16 04:36:56;;;;;;;17.83;6.70;;;0.40;99.90;-0.70;100607;;;;568458;248;24117;-81
2022/01/16 04:39:31;;;;;;;16.53;6.33;;;0.40;99.90;-0.70;100602;;;;568385;248;24080;-79
2022/01/16 04:44:42;;;;;;;17.10;5.67;;;0.50;99.90;-0.70;100596;;;;568829;248;25229;-81
2022/01/16 04:47:06;;;;;;;11.10;4.77;;;0.50;99.90;-0.70;100594;;;;568568;248;24118;-82
2022/01/16 04:49:34;;;;;;;14.83;4.90;;;0.50;99.90;-0.70;100590;;;;568826;248;24146;-81
2022/01/16 04:52:02;;;;;;;13.47;6.27;;;0.40;99.90;-0.70;100583;;;;577176;248;24102;-81
2022/01/16 04:54:33;;;;;;;8.97;5.23;;;0.50;99.90;-0.60;100575;;;;569040;247;24090;-80
2022/01/16 04:56:58;;;;;;;10.97;4.70;;;0.50;99.90;-0.60;100574;;;;569481;248;24152;-80
2022/01/16 04:59:26;;;;;;;20.80;9.45;;;0.50;99.90;-0.60;100567;;;;564404;248;35429;-79
2022/01/16 05:01:55;;;;;;;15.43;6.00;;;0.50;99.90;-0.60;100565;;;;569125;248;24102;-84
2022/01/16 05:04:23;;;;;;;18.00;6.57;;;0.50;99.90;-0.60;100552;;;;569399;248;24085;-81
2022/01/16 05:06:51;;;;;;;7.20;4.77;;;0.50;99.90;-0.60;100559;;;;569403;248;24098;-80
2022/01/16 05:09:19;;;;;;;11.57;5.37;;;0.60;99.90;-0.60;100553;;;;569362;248;24080;-82
2022/01/16 05:11:53;;;;;;;8.97;5.23;;;0.60;99.90;-0.60;100556;;;;569372;248;24142;-81
2022/01/16 05:17:01;;;;;;;11.17;4.73;;;0.60;99.90;-0.60;100558;;;;569065;248;24102;-80
2022/01/16 05:19:29;;;;;;;15.77;5.73;;;0.60;99.90;-0.50;100558;;;;569080;248;24130;-81
2022/01/16 05:21:57;;;;;;;8.33;4.47;;;0.60;99.90;-0.50;100553;;;;569100;248;24098;-80
2022/01/16 05:24:31;;;;;;;15.33;5.13;;;0.60;99.90;-0.50;100529;;;;569147;248;24071;-81
2022/01/16 05:26:53;;;;;;;11.17;4.87;;;0.60;99.90;-0.50;100533;;;;569071;248;24102;-81
2022/01/16 05:29:25;;;;;;;14.07;5.97;;;0.60;99.90;-0.50;100536;;;;569030;248;24134;-82
2022/01/16 05:31:49;;;;;;;9.13;4.80;;;0.60;99.90;-0.50;100536;;;;568503;248;24158;-82
2022/01/16 05:34:23;;;;;;;13.17;5.73;;;0.60;99.90;-0.50;100537;;;;568863;248;24143;-81
2022/01/16 05:36:48;;;;;;;10.67;5.13;;;0.60;99.90;-0.50;100529;;;;568803;248;24088;-81
2022/01/16 05:39:20;;;;;;;13.27;5.50;;;0.70;99.90;-0.50;100518;;;;568753;248;24084;-80
2022/01/16 05:41:43;;;;;;;9.60;5.43;;;0.70;99.90;-0.50;100520;;;;568241;248;24107;-80
2022/01/16 05:44:11;;;;;;;11.83;5.60;;;0.70;99.90;-0.50;100508;;;;568503;248;24081;-80
2022/01/16 05:46:40;;;;;;;9.33;5.73;;;0.70;99.90;-0.40;100499;;;;577102;248;24213;-81
2022/01/16 05:49:11;;;;;;;15.50;6.77;;;0.60;99.90;-0.40;100502;;;;568547;248;24095;-82
2022/01/16 05:51:36;;;;;;;16.03;5.57;;;0.70;99.90;-0.40;100497;;;;568173;248;24111;-82
2022/01/16 05:54:04;;;;;;;17.10;6.70;;;0.70;99.90;-0.40;100502;;;;568331;248;25119;-82
2022/01/16 05:56:32;;;;;;;16.17;5.40;;;0.70;99.90;-0.40;100490;;;;577137;248;24084;-82
2022/01/16 05:59:00;;;;;;;7.20;5.03;;;0.70;99.90;-0.40;100493;;;;568380;248;24131;-81
2022/01/16 06:01:28;;;;;;;9.67;5.67;;;0.70;99.90;-0.40;100485;;;;568524;248;24103;-83
2022/01/16 06:03:56;;;;;;;14.87;4.93;;;0.70;99.90;-0.40;100492;;;;568463;248;24150;-80
2022/01/16 06:06:25;;;;;;;14.27;5.30;;;0.70;99.90;-0.50;100476;;;;569684;248;24089;-81
2022/01/16 06:08:53;;;;;;;12.43;5.17;;;0.60;99.90;-0.50;100474;;;;569611;248;24101;-80
2022/01/16 06:11:21;;;;;;;12.17;5.53;;;0.60;99.90;-0.50;100471;;;;569265;248;24078;-81
2022/01/16 06:13:49;;;;;;;13.20;5.40;;;0.60;99.90;-0.50;100476;;;;569329;248;24082;-81
2022/01/16 06:16:17;;;;;;;17.87;8.63;;;0.60;99.90;-0.50;100482;;;;564035;248;35480;-81
2022/01/16 06:18:44;;;;;;;14.53;5.90;;;0.60;99.90;-0.50;100494;;;;577689;248;24071;-81
2022/01/16 06:21:12;;;;;;;10.17;6.40;;;0.60;99.90;-0.60;100480;;;;568988;248;24107;-82
2022/01/16 06:23:40;;;;;;;10.20;4.57;;;0.60;99.90;-0.50;100484;;;;568858;248;24135;-82
2022/01/16 06:26:09;;;;;;;9.27;4.73;;;0.60;99.90;-0.50;100471;;;;568732;248;24126;-81
2022/01/16 06:28:36;;;;;;;8.80;4.57;;;0.60;99.90;-0.50;100476;;;;568699;248;24076;-82
2022/01/16 06:31:04;;;;;;;6.93;4.20;;;0.60;99.90;-0.50;100476;;;;568801;248;24094;-81
2022/01/16 06:33:32;;;;;;;13.63;4.73;;;0.60;99.90;-0.50;100466;;;;568676;248;24084;-81
2022/01/16 06:36:01;;;;;;;13.50;4.43;;;0.60;99.90;-0.50;100463;;;;569088;248;24114;-81
2022/01/16 06:38:29;;;;;;;9.00;4.63;;;0.60;99.90;-0.50;100461;;;;568728;248;24129;-81
2022/01/16 06:40:56;;;;;;;6.03;4.00;;;0.60;99.90;-0.50;100464;;;;568618;248;24114;-81
2022/01/16 06:43:24;;;;;;;9.77;4.37;;;0.60;99.90;-0.60;100448;;;;568890;248;24146;-82
2022/01/16 06:45:56;;;;;;;9.40;4.67;;;0.50;99.90;-0.60;100453;;;;568765;248;25123;-81
2022/01/16 06:48:23;;;;;;;8.37;4.23;;;0.50;99.90;-0.60;100457;;;;568425;248;24206;-82
2022/01/16 06:50:51;;;;;;;17.10;4.90;;;0.50;99.90;-0.60;100461;;;;568571;248;25127;-82
2022/01/16 06:53:16;;;;;;;10.97;5.37;;;0.50;99.90;-0.60;100438;;;;568655;248;25127;-82
2022/01/16 06:55:44;;;;;;;9.77;4.67;;;0.50;99.90;-0.70;100445;;;;568574;248;24094;-82
2022/01/16 06:58:12;;;;;;;15.07;6.37;;;0.50;99.90;-0.70;100447;;;;568377;248;24109;-81
2022/01/16 07:00:40;;;;;;;11.50;5.77;;;0.40;99.90;-0.60;100444;;;;568504;248;24132;-82
2022/01/16 07:03:08;;;;;;;10.97;5.43;;;0.50;99.90;-0.60;100443;;;;568392;248;24091;-82
2022/01/16 07:05:36;;;;;;;7.70;4.37;;;0.50;99.90;-0.60;100443;;;;568786;248;25126;-82
2022/01/16 07:08:03;;;;;;;11.87;5.63;;;0.50;99.90;-0.70;100455;;;;568427;248;24104;-82
2022/01/16 07:10:31;;;;;;;10.73;4.47;;;0.50;99.90;-0.60;100446;;;;568324;248;24105;-81
2022/01/16 07:12:59;;;;;;;10.50;5.47;;;0.50;99.90;-0.60;100449;;;;568490;248;24069;-81
2022/01/16 07:15:27;;;;;;;8.63;5.10;;;0.50;99.90;-0.60;100448;;;;568399;248;24099;-81
2022/01/16 07:17:55;;;;;;;21.33;7.13;;;0.50;99.90;-0.60;100440;;;;569350;248;24082;-80
2022/01/16 07:20:23;;;;;;;14.90;6.30;;;0.50;99.90;-0.60;100442;;;;569604;248;24112;-82
2022/01/16 07:22:51;;;;;;;11.97;5.87;;;0.50;99.90;-0.60;100442;;;;569186;248;24122;-81
2022/01/16 07:25:19;;;;;;;16.07;5.83;;;0.50;99.90;-0.60;100438;;;;569235;248;24090;-82
2022/01/16 07:27:47;;;;;;;11.80;6.00;;;0.50;99.90;-0.60;100434;;;;568952;248;24104;-81
2022/01/16 07:30:15;;;;;;;14.23;6.17;;;0.50;99.90;-0.60;100436;;;;569029;248;24217;-82
2022/01/16 07:32:43;;;;;;;9.83;4.90;;;0.50;99.90;-0.60;100430;;;;568902;248;24088;-81
2022/01/16 07:35:11;;;;;;;8.83;5.40;;;0.50;99.90;-0.60;100430;;;;569181;248;24112;-82
2022/01/16 07:37:39;;;;;;;8.80;4.93;;;0.50;99.90;-0.60;100419;;;;577361;248;24073;-82
2022/01/16 07:40:11;;;;;;;16.80;7.07;;;0.60;99.90;-0.50;100420;;;;568594;248;24103;-82
2022/01/16 07:42:35;;;;;;;9.73;4.73;;;0.50;99.90;-0.50;100415;;;;564820;248;24138;-80
2022/01/16 07:45:07;;;;;;;14.67;5.23;;;0.60;99.90;-0.50;100424;;;;569069;248;24102;-80
2022/01/16 07:47:32;;;;;;;7.60;4.67;;;0.60;99.90;-0.50;100426;;;;577601;248;24111;-82
2022/01/16 07:50:00;;;;;;;11.07;5.67;;;0.60;99.90;-0.50;100429;;;;568999;248;24076;-82
2022/01/16 07:52:28;;;;;;;14.23;5.63;;;0.60;99.90;-0.50;100435;;;;569020;248;24105;-81
2022/01/16 07:54:55;;;;;;;14.70;4.93;;;0.70;99.90;-0.40;100438;;;;568724;248;24153;-81
2022/01/16 07:57:23;;;;;;;10.37;6.03;;;0.70;99.90;-0.40;100435;;;;568330;248;24170;-81
2022/01/16 07:59:51;;;;;;;9.73;5.33;;;0.70;99.90;-0.30;100446;;;;568534;248;24080;-82
2022/01/16 08:02:22;;;;;;;8.50;4.20;;;0.80;99.90;-0.30;100439;;;;568427;248;24087;-80
2022/01/16 08:04:48;;;;;;;10.37;4.17;;;0.80;99.90;-0.30;100431;;;;568260;248;24093;-80
2022/01/16 08:07:20;;;;;;;16.27;6.40;;;0.80;99.90;-0.20;100430;;;;568520;248;24112;-81
2022/01/16 08:09:47;;;;;;;10.97;6.03;;;0.90;99.90;-0.20;100438;;;;565740;248;24107;-81
2022/01/16 08:12:12;;;;;;;20.37;10.02;;;0.90;99.90;-0.10;100424;;;;563251;248;35480;-81
2022/01/16 08:14:40;;;;;;;13.10;7.70;;;1.00;99.90;-0.10;100422;;;;568310;248;24096;-83
2022/01/16 08:17:08;;;;;;;16.73;7.07;;;1.00;99.90;0.00;100418;;;;568540;248;24080;-81
2022/01/16 08:19:35;;;;;;;14.00;7.50;;;1.10;99.90;0.10;100409;;;;568436;248;24105;-82
2022/01/16 08:22:07;;;;;;;13.23;6.23;;;1.20;99.90;0.10;100406;;;;568361;248;24130;-82
2022/01/16 08:24:31;;;;;;;13.83;6.33;;;1.20;99.90;0.10;100410;;;;576980;248;24099;-82
2022/01/16 08:26:59;;;;;;;20.10;6.60;;;1.20;99.90;0.20;100402;;;;577005;248;24103;-82
2022/01/16 08:29:27;;;;;;;17.93;6.73;;;1.30;99.90;0.20;100407;;;;569281;248;24085;-82
2022/01/16 08:31:56;;;;;;;13.73;6.10;;;1.30;99.90;0.30;100408;;;;569574;248;24091;-82
2022/01/16 08:34:24;;;;;;;16.03;6.20;;;1.30;99.90;0.30;100400;;;;569328;248;24112;-81
2022/01/16 08:36:51;;;;;;;15.53;6.00;;;1.40;99.90;0.30;100389;;;;569236;248;24094;-82
2022/01/16 08:39:19;;;;;;;14.63;6.37;;;1.40;99.90;0.30;100392;;;;568942;248;24097;-83
2022/01/16 08:41:48;;;;;;;14.87;6.93;;;1.40;99.90;0.30;100387;;;;569009;248;24107;-81
2022/01/16 08:44:20;;;;;;;11.10;5.73;;;1.40;99.90;0.30;100381;;;;569325;248;24076;-82
2022/01/16 08:46:45;;;;;;;11.97;5.77;;;1.40;99.90;0.40;100384;;;;577721;248;24113;-83
2022/01/16 08:49:13;;;;;;;12.53;6.00;;;1.50;99.90;0.40;100388;;;;569057;248;24094;-82
2022/01/16 08:51:40;;;;;;;11.57;6.07;;;1.50;99.90;0.50;100385;;;;569003;248;24095;-82
2022/01/16 08:54:09;;;;;;;21.10;6.13;;;1.60;99.90;0.50;100371;;;;577668;248;24080;-81
2022/01/16 08:56:37;;;;;;;16.27;6.23;;;1.60;99.90;0.60;100372;;;;577657;248;24083;-82
2022/01/16 08:59:08;;;;;;;16.63;6.00;;;1.60;99.90;0.60;100362;;;;577388;248;25155;-81
2022/01/16 09:01:33;;;;;;;12.93;5.67;;;1.70;99.90;0.70;100356;;;;568504;248;24115;-81
2022/01/16 09:04:04;;;;;;;18.63;6.33;;;1.80;99.90;0.70;100349;;;;568542;248;24090;-82
2022/01/16 09:06:29;;;;;;;10.03;5.53;;;1.70;99.90;0.70;100337;;;;568337;248;24115;-81
2022/01/16 09:08:57;;;;;;;15.90;5.23;;;1.80;99.90;0.70;100334;;;;576956;248;24117;-81
2022/01/16 09:11:25;;;;;;;10.47;5.43;;;1.80;99.90;0.80;100332;;;;568423;248;24145;-81
2022/01/16 09:13:53;;;;;;;14.30;5.90;;;1.80;99.90;0.80;100331;;;;568339;248;24089;-81
2022/01/16 09:16:24;;;;;;;9.30;5.40;;;1.90;99.90;0.80;100332;;;;577186;248;24115;-81
2022/01/16 09:18:49;;;;;;;16.00;6.13;;;1.90;99.90;0.90;100332;;;;571975;248;24111;-81
2022/01/16 09:21:17;;;;;;;13.83;5.10;;;1.90;99.90;1.00;100312;;;;568385;248;24110;-81
2022/01/16 09:23:46;;;;;;;18.87;9.10;;;2.00;99.90;1.00;100312;;;;563477;248;35416;-80
2022/01/16 09:26:13;;;;;;;18.67;7.83;;;2.00;99.90;1.00;100309;;;;568377;248;24092;-81
2022/01/16 09:28:41;;;;;;;14.93;6.50;;;2.10;99.90;1.00;100295;;;;568616;248;24097;-80
2022/01/16 09:31:09;;;;;;;9.90;6.20;;;2.10;99.90;1.10;100289;;;;568415;248;24093;-82
2022/01/16 09:33:38;;;;;;;12.90;6.40;;;2.20;99.90;1.20;100290;;;;576928;248;24092;-81
2022/01/16 09:36:09;;;;;;;16.77;6.97;;;2.20;99.90;1.30;100275;;;;568457;248;24123;-81
2022/01/16 09:38:34;;;;;;;15.43;6.53;;;2.30;99.90;1.30;100258;;;;568242;248;24096;-82
2022/01/16 09:41:04;;;;;;;16.20;6.90;;;2.40;99.90;1.40;100257;;;;569393;248;24089;-81
2022/01/16 09:43:33;;;;;;;13.57;5.77;;;2.50;99.90;1.50;100265;;;;569450;248;24143;-81
2022/01/16 09:45:58;;;;;;;10.13;5.30;;;2.50;99.90;1.50;100248;;;;569501;248;24118;-82
2022/01/16 09:48:26;;;;;;;16.80;6.10;;;2.60;99.90;1.50;100253;;;;569500;248;24091;-80
2022/01/16 09:50:54;;;;;;;15.17;5.97;;;2.60;99.90;1.60;100246;;;;578018;248;24089;-81
2022/01/16 09:53:26;;;;;;;14.33;6.27;;;2.60;99.90;1.60;100236;;;;569277;248;24089;-81
2022/01/16 09:55:50;;;;;;;10.87;6.37;;;2.60;99.90;1.70;100239;;;;569152;248;24130;-83
2022/01/16 09:58:18;;;;;;;14.63;6.20;;;2.70;99.90;1.70;100236;;;;569281;248;24064;-81
2022/01/16 10:00:50;;;;;;;15.10;5.90;;;2.70;99.90;1.70;100226;;;;577307;248;24152;-82
2022/01/16 10:03:38;;;;;;;15.10;5.03;;;2.80;99.90;1.70;100225;;;;568809;248;24096;-81
2022/01/16 10:06:21;;;;;;;14.57;5.63;;;2.80;99.90;1.90;100234;;;;568885;249;24153;-82
2022/01/16 10:08:48;;;;;;;11.90;5.30;;;2.90;99.90;1.90;100231;;;;575763;245;24198;-81
2022/01/16 10:11:27;;;;;;;18.15;7.93;;;3.00;99.90;1.90;100225;;;;575945;240;34973;-82
2022/01/16 10:14:01;;;;;;;16.67;6.50;;;2.90;99.90;1.90;100226;;;;587248;240;24023;-82
2022/01/16 10:16:36;;;;;;;10.27;6.23;;;2.90;99.90;1.90;100224;;;;593805;236;24057;-81
2022/01/16 10:19:04;;;;;;;9.70;4.73;;;3.00;99.90;2.00;100238;;;;581778;240;24029;-81
2022/01/16 10:21:38;;;;;;;13.37;5.20;;;3.00;99.90;1.90;100233;;;;593271;236;24112;-82
2022/01/16 10:24:20;;;;;;;10.93;4.50;;;3.00;99.90;1.90;100228;;;;586972;240;24137;-82
2022/01/16 10:26:51;;;;;;;7.47;4.63;;;2.90;99.90;1.80;100213;;;;594141;239;24033;-82
2022/01/16 10:29:16;;;;;;;12.10;4.70;;;2.80;99.90;1.80;100210;;;;586592;240;24053;-81
2022/01/16 10:31:44;;;;;;;13.00;5.30;;;2.80;99.90;1.70;100217;;;;593596;239;24041;-80
2022/01/16 10:34:28;;;;;;;16.73;4.47;;;2.70;99.90;1.60;100200;;;;593717;240;24128;-81
2022/01/16 10:36:55;;;;;;;16.77;4.93;;;2.70;99.90;1.60;100200;;;;593395;240;24108;-81
2022/01/16 10:39:23;;;;;;;6.90;4.17;;;2.60;99.90;1.60;100201;;;;586950;240;24033;-80
2022/01/16 10:42:14;;;;;;;12.93;4.17;;;2.60;99.90;1.60;100196;;;;586839;240;24025;-81
2022/01/16 10:44:41;;;;;;;13.60;4.37;;;2.60;99.90;1.60;100185;;;;592951;240;24024;-83
2022/01/16 10:47:25;;;;;;;12.37;4.40;;;2.60;99.90;1.60;100174;;;;587377;240;24027;-83
2022/01/16 10:50:14;;;;;;;5.93;4.23;;;2.60;99.90;1.60;100188;;;;593719;240;24105;-81
2022/01/16 10:52:57;;;;;;;14.00;4.40;;;2.60;99.90;1.60;100177;;;;587989;238;24067;-82
2022/01/16 10:55:25;;;;;;;12.60;5.07;;;2.60;99.90;1.60;100170;;;;595026;240;24079;-81
2022/01/16 10:57:53;;;;;;;15.13;5.40;;;2.60;99.90;1.70;100159;;;;582626;240;24032;-82
2022/01/16 11:00:22;;;;;;;17.40;4.47;;;2.70;99.90;1.70;100163;;;;587612;240;24080;-79
2022/01/16 11:02:50;;;;;;;10.83;4.40;;;2.70;99.90;1.70;100169;;;;587637;240;27301;-81
2022/01/16 11:05:27;;;;;;;12.00;4.90;;;2.70;99.90;1.60;100171;;;;587654;240;24084;-80
2022/01/16 11:07:57;;;;;;;21.07;5.23;;;2.60;99.90;1.60;100159;;;;587232;240;24116;-81
2022/01/16 11:10:28;;;;;;;13.83;4.87;;;2.60;99.90;1.60;100160;;;;593826;240;24026;-80
2022/01/16 11:12:59;;;;;;;21.42;7.85;;;2.60;99.90;1.60;100144;;;;582138;240;35142;-82
2022/01/16 11:15:27;;;;;;;19.90;6.97;;;2.60;99.90;1.60;100139;;;;594087;240;24064;-80
2022/01/16 11:17:55;;;;;;;8.87;5.03;;;2.60;99.90;1.60;100132;;;;594130;239;24030;-80
2022/01/16 11:20:31;;;;;;;17.27;4.87;;;2.70;99.90;1.70;100128;;;;594043;240;24060;-81
2022/01/16 11:23:04;;;;;;;11.90;5.90;;;2.60;99.90;1.70;100124;;;;587179;240;24040;-81
2022/01/16 11:25:38;;;;;;;15.53;5.80;;;2.70;99.90;1.70;100127;;;;593907;240;24021;-80
2022/01/16 11:28:04;;;;;;;14.00;5.20;;;2.70;99.90;1.70;100122;;;;587293;240;24060;-81
2022/01/16 11:30:33;;;;;;;16.23;5.77;;;2.70;99.90;1.70;100124;;;;586871;240;24031;-81
2022/01/16 11:33:01;;;;;;;25.03;5.80;;;2.70;99.90;1.60;100123;;;;593852;236;24048;-80
2022/01/16 11:35:32;;;;;;;10.63;4.53;;;2.70;99.90;1.70;100117;;;;596338;237;24040;-80
2022/01/16 11:37:57;;;;;;;10.57;5.13;;;2.70;99.90;1.70;100113;;;;593497;240;24049;-82
2022/01/16 11:40:38;;;;;;;15.50;5.43;;;2.70;99.90;1.70;100111;;;;584298;240;24060;-81
2022/01/16 11:43:16;;;;;;;17.13;4.87;;;2.70;99.90;1.70;100113;;;;583582;240;24068;-82
2022/01/16 11:45:56;;;;;;;10.60;4.60;;;2.70;99.90;1.60;100108;;;;586394;240;24052;-82
2022/01/16 11:48:58;;;;;;;17.83;5.27;;;2.70;99.90;1.60;100095;;;;586338;240;24029;-81
2022/01/16 11:51:35;;;;;;;12.33;5.07;;;2.60;99.90;1.50;100088;;;;595779;238;24112;-81
2022/01/16 11:54:15;;;;;;;10.83;5.07;;;2.50;99.90;1.50;100077;;;;596344;238;24048;-81
2022/01/16 11:56:41;;;;;;;17.20;5.27;;;2.50;99.90;1.50;100063;;;;587176;240;25077;-81
2022/01/16 11:59:31;;;;;;;18.83;8.23;;;2.50;99.90;1.50;100060;;;;591187;237;46016;-81
2022/01/16 12:02:04;;;;;;;13.93;5.83;;;2.50;99.90;1.50;100049;;;;595978;238;24084;-81
2022/01/16 12:04:32;;;;;;;11.60;4.93;;;2.60;99.90;1.60;100041;;;;595028;234;24115;-82